sensor_id;sensor_type;location;lat;lon;timestamp;P1;durP1;ratioP1;P2;durP2;ratioP2
14708;SDS011;7445;50.774;4.944;2023-04-16T06:59:28;19.23;;;16.47;;
14708;SDS011;7445;50.774;4.944;2023-04-16T07:01:53;18.53;;;16.83;;
14708;SDS011;7445;50.774;4.944;2023-04-16T07:04:19;20.13;;;17.93;;
14708;SDS011;7445;50.774;4.944;2023-04-16T07:06:45;19.00;;;16.83;;
14708;SDS011;7445;50.774;4.944;2023-04-16T07:09:10;26.27;;;19.20;;
14708;SDS011;7445;50.774;4.944;2023-04-16T07:11:36;23.33;;;18.97;;
14708;SDS011;7445;50.774;4.944;2023-04-16T07:14:02;21.50;;;18.03;;
14708;SDS011;7445;50.774;4.944;2023-04-16T07:16:28;20.57;;;17.70;;
14708;SDS011;7445;50.774;4.944;2023-04-16T07:18:53;31.23;;;19.67;;
14708;SDS011;7445;50.774;4.944;2023-04-16T07:21:19;21.20;;;18.13;;
14708;SDS011;7445;50.774;4.944;2023-04-16T07:23:45;20.57;;;18.07;;
14708;SDS011;7445;50.774;4.944;2023-04-16T07:26:10;19.97;;;17.80;;
14708;SDS011;7445;50.774;4.944;2023-04-16T07:28:36;24.87;;;19.70;;
14708;SDS011;7445;50.774;4.944;2023-04-16T07:31:01;20.40;;;18.17;;
14708;SDS011;7445;50.774;4.944;2023-04-16T07:33:27;21.40;;;19.00;;
14708;SDS011;7445;50.774;4.944;2023-04-16T07:35:53;23.20;;;18.47;;
14708;SDS011;7445;50.774;4.944;2023-04-16T07:38:18;22.43;;;19.23;;
14708;SDS011;7445;50.774;4.944;2023-04-16T07:40:44;28.10;;;20.07;;
14708;SDS011;7445;50.774;4.944;2023-04-16T07:43:10;23.30;;;19.70;;
14708;SDS011;7445;50.774;4.944;2023-04-16T07:45:35;26.33;;;21.67;;
14708;SDS011;7445;50.774;4.944;2023-04-16T07:48:01;26.03;;;19.33;;
14708;SDS011;7445;50.774;4.944;2023-04-16T07:50:27;27.73;;;21.00;;
14708;SDS011;7445;50.774;4.944;2023-04-16T07:52:52;33.83;;;24.93;;
14708;SDS011;7445;50.774;4.944;2023-04-16T07:55:18;29.53;;;25.80;;
14708;SDS011;7445;50.774;4.944;2023-04-16T07:57:43;36.50;;;28.57;;
14708;SDS011;7445;50.774;4.944;2023-04-16T08:00:09;26.60;;;21.47;;
14708;SDS011;7445;50.774;4.944;2023-04-16T08:02:35;23.00;;;19.53;;
14708;SDS011;7445;50.774;4.944;2023-04-16T08:05:01;23.77;;;21.17;;
14708;SDS011;7445;50.774;4.944;2023-04-16T08:07:27;23.90;;;21.33;;
14708;SDS011;7445;50.774;4.944;2023-04-16T08:09:52;24.97;;;20.57;;
14708;SDS011;7445;50.774;4.944;2023-04-16T08:12:19;22.60;;;20.27;;
14708;SDS011;7445;50.774;4.944;2023-04-16T08:14:45;26.20;;;20.93;;
14708;SDS011;7445;50.774;4.944;2023-04-16T08:17:14;23.93;;;21.43;;
14708;SDS011;7445;50.774;4.944;2023-04-16T08:19:41;24.37;;;21.37;;
14708;SDS011;7445;50.774;4.944;2023-04-16T08:22:08;29.13;;;20.47;;
14708;SDS011;7445;50.774;4.944;2023-04-16T08:24:35;29.40;;;24.93;;
14708;SDS011;7445;50.774;4.944;2023-04-16T08:27:00;26.37;;;20.30;;
14708;SDS011;7445;50.774;4.944;2023-04-16T08:29:26;26.33;;;20.97;;
14708;SDS011;7445;50.774;4.944;2023-04-16T08:31:52;24.97;;;20.07;;
14708;SDS011;7445;50.774;4.944;2023-04-16T08:34:18;24.90;;;18.73;;
14708;SDS011;7445;50.774;4.944;2023-04-16T08:36:43;21.77;;;19.67;;
14708;SDS011;7445;50.774;4.944;2023-04-16T08:39:10;21.43;;;19.20;;
14708;SDS011;7445;50.774;4.944;2023-04-16T08:41:35;21.63;;;19.03;;
14708;SDS011;7445;50.774;4.944;2023-04-16T08:44:20;22.30;;;19.23;;
14708;SDS011;7445;50.774;4.944;2023-04-16T08:46:55;24.60;;;19.40;;
14708;SDS011;7445;50.774;4.944;2023-04-16T08:49:23;20.57;;;17.30;;
14708;SDS011;7445;50.774;4.944;2023-04-16T08:51:51;20.80;;;18.73;;
14708;SDS011;7445;50.774;4.944;2023-04-16T08:56:52;22.43;;;19.47;;
14708;SDS011;7445;50.774;4.944;2023-04-16T08:59:19;20.53;;;18.30;;
14708;SDS011;7445;50.774;4.944;2023-04-16T09:01:46;22.73;;;18.67;;
14708;SDS011;7445;50.774;4.944;2023-04-16T09:04:12;22.63;;;17.90;;
14708;SDS011;7445;50.774;4.944;2023-04-16T09:06:39;23.20;;;20.87;;
14708;SDS011;7445;50.774;4.944;2023-04-16T09:09:07;23.57;;;20.43;;
14708;SDS011;7445;50.774;4.944;2023-04-16T09:11:34;22.20;;;19.90;;
14708;SDS011;7445;50.774;4.944;2023-04-16T09:14:00;20.40;;;18.23;;
14708;SDS011;7445;50.774;4.944;2023-04-16T09:16:26;20.03;;;18.03;;
14708;SDS011;7445;50.774;4.944;2023-04-16T09:18:57;21.20;;;18.87;;
14708;SDS011;7445;50.774;4.944;2023-04-16T09:21:23;22.60;;;19.57;;
14708;SDS011;7445;50.774;4.944;2023-04-16T09:23:49;26.87;;;18.83;;
14708;SDS011;7445;50.774;4.944;2023-04-16T09:26:17;26.13;;;19.70;;
14708;SDS011;7445;50.774;4.944;2023-04-16T09:28:44;26.87;;;20.17;;
14708;SDS011;7445;50.774;4.944;2023-04-16T09:31:14;23.03;;;20.77;;
14708;SDS011;7445;50.774;4.944;2023-04-16T09:33:41;26.00;;;21.20;;
14708;SDS011;7445;50.774;4.944;2023-04-16T09:36:08;25.83;;;21.60;;
14708;SDS011;7445;50.774;4.944;2023-04-16T09:38:50;23.87;;;21.27;;
14708;SDS011;7445;50.774;4.944;2023-04-16T09:41:16;24.47;;;21.70;;
14708;SDS011;7445;50.774;4.944;2023-04-16T09:43:52;28.03;;;21.30;;
14708;SDS011;7445;50.774;4.944;2023-04-16T09:46:23;24.07;;;21.47;;
14708;SDS011;7445;50.774;4.944;2023-04-16T09:49:12;28.27;;;22.97;;
14708;SDS011;7445;50.774;4.944;2023-04-16T09:51:44;24.63;;;20.83;;
14708;SDS011;7445;50.774;4.944;2023-04-16T09:54:11;26.40;;;21.53;;
14708;SDS011;7445;50.774;4.944;2023-04-16T09:56:44;25.00;;;21.50;;
14708;SDS011;7445;50.774;4.944;2023-04-16T09:59:19;26.47;;;22.73;;
14708;SDS011;7445;50.774;4.944;2023-04-16T10:01:46;38.97;;;23.30;;
14708;SDS011;7445;50.774;4.944;2023-04-16T10:04:13;27.10;;;23.93;;
14708;SDS011;7445;50.774;4.944;2023-04-16T10:06:39;31.10;;;24.67;;
14708;SDS011;7445;50.774;4.944;2023-04-16T10:09:08;27.03;;;22.27;;
14708;SDS011;7445;50.774;4.944;2023-04-16T10:11:34;28.43;;;22.50;;
14708;SDS011;7445;50.774;4.944;2023-04-16T10:14:01;26.27;;;21.33;;
14708;SDS011;7445;50.774;4.944;2023-04-16T10:16:28;26.47;;;21.30;;
14708;SDS011;7445;50.774;4.944;2023-04-16T10:18:56;31.90;;;23.50;;
14708;SDS011;7445;50.774;4.944;2023-04-16T10:21:23;29.43;;;21.33;;
14708;SDS011;7445;50.774;4.944;2023-04-16T10:23:48;35.30;;;23.13;;
14708;SDS011;7445;50.774;4.944;2023-04-16T10:26:16;25.07;;;22.40;;
14708;SDS011;7445;50.774;4.944;2023-04-16T10:28:43;30.40;;;23.30;;
14708;SDS011;7445;50.774;4.944;2023-04-16T10:31:09;28.00;;;21.83;;
14708;SDS011;7445;50.774;4.944;2023-04-16T10:33:38;25.40;;;20.87;;
14708;SDS011;7445;50.774;4.944;2023-04-16T10:36:12;27.43;;;22.67;;
14708;SDS011;7445;50.774;4.944;2023-04-16T10:38:40;27.13;;;22.53;;
14708;SDS011;7445;50.774;4.944;2023-04-16T10:41:10;29.47;;;20.90;;
14708;SDS011;7445;50.774;4.944;2023-04-16T10:43:46;27.73;;;22.53;;
14708;SDS011;7445;50.774;4.944;2023-04-16T10:46:33;23.83;;;21.03;;
14708;SDS011;7445;50.774;4.944;2023-04-16T10:51:50;25.87;;;21.80;;
14708;SDS011;7445;50.774;4.944;2023-04-16T10:56:43;24.33;;;19.80;;
14708;SDS011;7445;50.774;4.944;2023-04-16T10:59:10;28.37;;;22.70;;
14708;SDS011;7445;50.774;4.944;2023-04-16T11:01:41;24.20;;;21.67;;
14708;SDS011;7445;50.774;4.944;2023-04-16T11:07:02;23.27;;;20.70;;
14708;SDS011;7445;50.774;4.944;2023-04-16T11:12:11;29.83;;;22.13;;
14708;SDS011;7445;50.774;4.944;2023-04-16T11:14:39;31.97;;;20.27;;
14708;SDS011;7445;50.774;4.944;2023-04-16T11:17:05;25.57;;;20.77;;
14708;SDS011;7445;50.774;4.944;2023-04-16T11:19:31;28.37;;;20.53;;
14708;SDS011;7445;50.774;4.944;2023-04-16T11:21:59;28.90;;;21.43;;
14708;SDS011;7445;50.774;4.944;2023-04-16T11:24:28;24.63;;;20.10;;
14708;SDS011;7445;50.774;4.944;2023-04-16T11:26:57;21.33;;;18.87;;
14708;SDS011;7445;50.774;4.944;2023-04-16T11:29:22;27.27;;;21.10;;
14708;SDS011;7445;50.774;4.944;2023-04-16T11:31:49;22.67;;;20.20;;
14708;SDS011;7445;50.774;4.944;2023-04-16T11:34:15;25.50;;;21.80;;
14708;SDS011;7445;50.774;4.944;2023-04-16T11:36:46;27.10;;;20.83;;
14708;SDS011;7445;50.774;4.944;2023-04-16T11:39:12;30.07;;;22.50;;
14708;SDS011;7445;50.774;4.944;2023-04-16T11:41:47;22.80;;;19.70;;
14708;SDS011;7445;50.774;4.944;2023-04-16T11:44:21;27.47;;;21.10;;
14708;SDS011;7445;50.774;4.944;2023-04-16T11:46:48;27.23;;;20.87;;
14708;SDS011;7445;50.774;4.944;2023-04-16T11:49:15;26.70;;;22.17;;
14708;SDS011;7445;50.774;4.944;2023-04-16T11:51:45;29.57;;;25.17;;
14708;SDS011;7445;50.774;4.944;2023-04-16T11:54:18;31.20;;;23.37;;
14708;SDS011;7445;50.774;4.944;2023-04-16T11:56:45;35.13;;;22.80;;
14708;SDS011;7445;50.774;4.944;2023-04-16T11:59:12;26.33;;;21.67;;
14708;SDS011;7445;50.774;4.944;2023-04-16T12:01:46;29.03;;;23.10;;
14708;SDS011;7445;50.774;4.944;2023-04-16T12:04:18;28.07;;;21.40;;
14708;SDS011;7445;50.774;4.944;2023-04-16T12:09:29;25.30;;;22.73;;
14708;SDS011;7445;50.774;4.944;2023-04-16T12:11:54;24.27;;;21.67;;
14708;SDS011;7445;50.774;4.944;2023-04-16T12:14:21;23.23;;;20.80;;
14708;SDS011;7445;50.774;4.944;2023-04-16T12:16:47;30.60;;;21.97;;
14708;SDS011;7445;50.774;4.944;2023-04-16T12:19:13;34.00;;;23.40;;
14708;SDS011;7445;50.774;4.944;2023-04-16T12:24:06;28.77;;;22.00;;
14708;SDS011;7445;50.774;4.944;2023-04-16T12:26:40;29.13;;;24.90;;
14708;SDS011;7445;50.774;4.944;2023-04-16T12:29:13;28.27;;;25.03;;
14708;SDS011;7445;50.774;4.944;2023-04-16T12:31:43;28.17;;;23.67;;
14708;SDS011;7445;50.774;4.944;2023-04-16T12:34:09;27.13;;;23.23;;
14708;SDS011;7445;50.774;4.944;2023-04-16T12:36:36;26.10;;;23.40;;
14708;SDS011;7445;50.774;4.944;2023-04-16T12:39:01;23.53;;;21.10;;
14708;SDS011;7445;50.774;4.944;2023-04-16T12:41:28;26.37;;;23.70;;
14708;SDS011;7445;50.774;4.944;2023-04-16T12:44:04;26.57;;;22.07;;
14708;SDS011;7445;50.774;4.944;2023-04-16T12:46:51;27.00;;;24.27;;
14708;SDS011;7445;50.774;4.944;2023-04-16T12:49:17;29.43;;;23.13;;
14708;SDS011;7445;50.774;4.944;2023-04-16T12:51:43;25.17;;;22.57;;
14708;SDS011;7445;50.774;4.944;2023-04-16T12:54:08;28.67;;;25.13;;
14708;SDS011;7445;50.774;4.944;2023-04-16T12:56:34;32.27;;;24.83;;
14708;SDS011;7445;50.774;4.944;2023-04-16T12:59:00;28.33;;;22.90;;
14708;SDS011;7445;50.774;4.944;2023-04-16T13:01:26;28.30;;;24.67;;
14708;SDS011;7445;50.774;4.944;2023-04-16T13:03:52;28.70;;;25.50;;
14708;SDS011;7445;50.774;4.944;2023-04-16T13:06:18;26.30;;;23.50;;
14708;SDS011;7445;50.774;4.944;2023-04-16T13:08:44;26.73;;;23.90;;
14708;SDS011;7445;50.774;4.944;2023-04-16T13:11:10;28.77;;;24.93;;
14708;SDS011;7445;50.774;4.944;2023-04-16T13:13:36;26.80;;;23.60;;
14708;SDS011;7445;50.774;4.944;2023-04-16T13:16:02;29.67;;;25.50;;
14708;SDS011;7445;50.774;4.944;2023-04-16T13:18:30;29.40;;;23.60;;
14708;SDS011;7445;50.774;4.944;2023-04-16T13:20:56;28.73;;;25.10;;
14708;SDS011;7445;50.774;4.944;2023-04-16T13:23:22;29.60;;;25.27;;
14708;SDS011;7445;50.774;4.944;2023-04-16T13:25:48;33.33;;;26.37;;
14708;SDS011;7445;50.774;4.944;2023-04-16T13:28:13;37.67;;;30.23;;
14708;SDS011;7445;50.774;4.944;2023-04-16T13:30:40;31.93;;;26.53;;
14708;SDS011;7445;50.774;4.944;2023-04-16T13:33:06;30.73;;;27.40;;
14708;SDS011;7445;50.774;4.944;2023-04-16T13:35:33;28.90;;;25.70;;
14708;SDS011;7445;50.774;4.944;2023-04-16T13:37:58;29.40;;;26.27;;
14708;SDS011;7445;50.774;4.944;2023-04-16T13:40:24;30.03;;;26.23;;
14708;SDS011;7445;50.774;4.944;2023-04-16T13:42:50;32.67;;;25.90;;
14708;SDS011;7445;50.774;4.944;2023-04-16T13:45:15;29.40;;;25.23;;
14708;SDS011;7445;50.774;4.944;2023-04-16T13:47:41;28.10;;;25.13;;
14708;SDS011;7445;50.774;4.944;2023-04-16T13:50:07;39.00;;;25.73;;
14708;SDS011;7445;50.774;4.944;2023-04-16T13:52:33;29.70;;;26.57;;
14708;SDS011;7445;50.774;4.944;2023-04-16T13:55:00;30.37;;;24.93;;
14708;SDS011;7445;50.774;4.944;2023-04-16T13:57:26;30.97;;;24.80;;
14708;SDS011;7445;50.774;4.944;2023-04-16T13:59:52;32.80;;;25.50;;
14708;SDS011;7445;50.774;4.944;2023-04-16T14:02:18;28.67;;;25.27;;
14708;SDS011;7445;50.774;4.944;2023-04-16T14:04:44;35.77;;;28.27;;
14708;SDS011;7445;50.774;4.944;2023-04-16T14:07:10;32.53;;;28.60;;
14708;SDS011;7445;50.774;4.944;2023-04-16T14:09:36;33.13;;;26.83;;
14708;SDS011;7445;50.774;4.944;2023-04-16T14:12:01;33.30;;;26.07;;
14708;SDS011;7445;50.774;4.944;2023-04-16T14:14:28;31.20;;;26.10;;
14708;SDS011;7445;50.774;4.944;2023-04-16T14:16:54;33.80;;;29.33;;
14708;SDS011;7445;50.774;4.944;2023-04-16T14:19:20;40.30;;;32.17;;
14708;SDS011;7445;50.774;4.944;2023-04-16T14:21:46;33.00;;;28.53;;
14708;SDS011;7445;50.774;4.944;2023-04-16T14:24:11;33.87;;;27.97;;
14708;SDS011;7445;50.774;4.944;2023-04-16T14:26:37;39.83;;;28.33;;
14708;SDS011;7445;50.774;4.944;2023-04-16T14:29:02;34.30;;;26.00;;
14708;SDS011;7445;50.774;4.944;2023-04-16T14:31:29;34.30;;;27.97;;
14708;SDS011;7445;50.774;4.944;2023-04-16T14:33:54;29.03;;;25.97;;
14708;SDS011;7445;50.774;4.944;2023-04-16T14:36:20;31.57;;;26.77;;
14708;SDS011;7445;50.774;4.944;2023-04-16T14:38:46;33.43;;;27.63;;
14708;SDS011;7445;50.774;4.944;2023-04-16T14:41:11;29.60;;;26.47;;
14708;SDS011;7445;50.774;4.944;2023-04-16T14:43:37;33.37;;;26.47;;
14708;SDS011;7445;50.774;4.944;2023-04-16T14:46:05;30.50;;;27.33;;
14708;SDS011;7445;50.774;4.944;2023-04-16T14:48:31;31.80;;;25.30;;
14708;SDS011;7445;50.774;4.944;2023-04-16T14:50:57;30.47;;;27.20;;
14708;SDS011;7445;50.774;4.944;2023-04-16T14:53:22;31.77;;;28.33;;
14708;SDS011;7445;50.774;4.944;2023-04-16T14:55:48;31.27;;;27.90;;
14708;SDS011;7445;50.774;4.944;2023-04-16T14:58:15;32.53;;;26.73;;
14708;SDS011;7445;50.774;4.944;2023-04-16T15:00:41;32.80;;;29.33;;
14708;SDS011;7445;50.774;4.944;2023-04-16T15:03:06;34.70;;;28.83;;
14708;SDS011;7445;50.774;4.944;2023-04-16T15:05:33;32.50;;;28.20;;
14708;SDS011;7445;50.774;4.944;2023-04-16T15:07:59;36.93;;;28.50;;
14708;SDS011;7445;50.774;4.944;2023-04-16T15:10:25;35.90;;;28.53;;
14708;SDS011;7445;50.774;4.944;2023-04-16T15:12:50;37.57;;;29.57;;
14708;SDS011;7445;50.774;4.944;2023-04-16T15:15:16;29.33;;;26.17;;
14708;SDS011;7445;50.774;4.944;2023-04-16T15:17:42;33.53;;;28.70;;
14708;SDS011;7445;50.774;4.944;2023-04-16T15:20:08;29.87;;;26.83;;
14708;SDS011;7445;50.774;4.944;2023-04-16T15:22:34;35.83;;;28.90;;
14708;SDS011;7445;50.774;4.944;2023-04-16T15:25:00;35.00;;;28.77;;
14708;SDS011;7445;50.774;4.944;2023-04-16T15:27:26;46.97;;;29.03;;
14708;SDS011;7445;50.774;4.944;2023-04-16T15:29:51;30.60;;;27.47;;
14708;SDS011;7445;50.774;4.944;2023-04-16T15:32:18;30.43;;;26.97;;
14708;SDS011;7445;50.774;4.944;2023-04-16T15:34:43;34.07;;;25.60;;
14708;SDS011;7445;50.774;4.944;2023-04-16T15:37:10;33.23;;;28.47;;
14708;SDS011;7445;50.774;4.944;2023-04-16T15:39:36;28.63;;;25.80;;
14708;SDS011;7445;50.774;4.944;2023-04-16T15:42:05;31.80;;;27.47;;
14708;SDS011;7445;50.774;4.944;2023-04-16T15:44:31;40.63;;;27.37;;
14708;SDS011;7445;50.774;4.944;2023-04-16T15:46:57;27.57;;;24.63;;
14708;SDS011;7445;50.774;4.944;2023-04-16T15:49:24;28.53;;;23.93;;
14708;SDS011;7445;50.774;4.944;2023-04-16T15:51:50;26.97;;;24.03;;
14708;SDS011;7445;50.774;4.944;2023-04-16T15:54:16;25.83;;;22.70;;
14708;SDS011;7445;50.774;4.944;2023-04-16T15:56:44;29.83;;;23.90;;
14708;SDS011;7445;50.774;4.944;2023-04-16T15:59:10;27.73;;;23.07;;
14708;SDS011;7445;50.774;4.944;2023-04-16T16:01:36;26.10;;;23.33;;
14708;SDS011;7445;50.774;4.944;2023-04-16T16:04:02;27.17;;;24.30;;
14708;SDS011;7445;50.774;4.944;2023-04-16T16:06:29;30.50;;;24.57;;
14708;SDS011;7445;50.774;4.944;2023-04-16T16:08:55;31.17;;;26.63;;
14708;SDS011;7445;50.774;4.944;2023-04-16T16:11:21;29.03;;;25.63;;
14708;SDS011;7445;50.774;4.944;2023-04-16T16:13:46;25.83;;;23.07;;
14708;SDS011;7445;50.774;4.944;2023-04-16T16:16:12;25.90;;;23.20;;
14708;SDS011;7445;50.774;4.944;2023-04-16T16:18:38;33.90;;;25.70;;
14708;SDS011;7445;50.774;4.944;2023-04-16T16:21:04;31.50;;;24.87;;
14708;SDS011;7445;50.774;4.944;2023-04-16T16:23:30;28.53;;;25.43;;
14708;SDS011;7445;50.774;4.944;2023-04-16T16:25:55;29.63;;;26.57;;
14708;SDS011;7445;50.774;4.944;2023-04-16T16:28:21;28.20;;;25.13;;
14708;SDS011;7445;50.774;4.944;2023-04-16T16:30:48;32.90;;;28.43;;
14708;SDS011;7445;50.774;4.944;2023-04-16T16:33:15;33.40;;;29.37;;
14708;SDS011;7445;50.774;4.944;2023-04-16T16:35:41;38.13;;;27.73;;
14708;SDS011;7445;50.774;4.944;2023-04-16T16:38:06;31.47;;;28.17;;
14708;SDS011;7445;50.774;4.944;2023-04-16T16:40:32;30.93;;;27.77;;
14708;SDS011;7445;50.774;4.944;2023-04-16T16:42:58;32.10;;;27.67;;
14708;SDS011;7445;50.774;4.944;2023-04-16T16:45:24;34.00;;;28.23;;
14708;SDS011;7445;50.774;4.944;2023-04-16T16:47:51;30.30;;;27.27;;
14708;SDS011;7445;50.774;4.944;2023-04-16T16:50:16;33.57;;;28.93;;
14708;SDS011;7445;50.774;4.944;2023-04-16T16:52:43;34.83;;;29.07;;
14708;SDS011;7445;50.774;4.944;2023-04-16T16:55:08;33.27;;;28.10;;
14708;SDS011;7445;50.774;4.944;2023-04-16T16:57:35;29.67;;;26.87;;
14708;SDS011;7445;50.774;4.944;2023-04-16T17:00:04;29.90;;;26.87;;
14708;SDS011;7445;50.774;4.944;2023-04-16T17:02:36;28.63;;;25.70;;
14708;SDS011;7445;50.774;4.944;2023-04-16T17:05:02;29.00;;;25.93;;
14708;SDS011;7445;50.774;4.944;2023-04-16T17:07:28;30.03;;;27.07;;
14708;SDS011;7445;50.774;4.944;2023-04-16T17:09:54;30.77;;;27.63;;
14708;SDS011;7445;50.774;4.944;2023-04-16T17:12:20;31.07;;;27.87;;
14708;SDS011;7445;50.774;4.944;2023-04-16T17:14:50;31.63;;;28.50;;
14708;SDS011;7445;50.774;4.944;2023-04-16T17:17:16;36.07;;;27.73;;
14708;SDS011;7445;50.774;4.944;2023-04-16T17:19:42;36.93;;;27.10;;
14708;SDS011;7445;50.774;4.944;2023-04-16T17:22:08;31.23;;;28.03;;
14708;SDS011;7445;50.774;4.944;2023-04-16T17:24:34;30.60;;;27.57;;
14708;SDS011;7445;50.774;4.944;2023-04-16T17:27:00;33.57;;;28.50;;
14708;SDS011;7445;50.774;4.944;2023-04-16T17:29:28;44.60;;;31.97;;
14708;SDS011;7445;50.774;4.944;2023-04-16T17:31:54;32.97;;;28.97;;
14708;SDS011;7445;50.774;4.944;2023-04-16T17:34:19;31.63;;;27.30;;
14708;SDS011;7445;50.774;4.944;2023-04-16T17:36:45;32.17;;;28.70;;
14708;SDS011;7445;50.774;4.944;2023-04-16T17:39:11;29.93;;;26.80;;
14708;SDS011;7445;50.774;4.944;2023-04-16T17:41:37;33.10;;;29.47;;
14708;SDS011;7445;50.774;4.944;2023-04-16T17:44:03;32.33;;;29.07;;
14708;SDS011;7445;50.774;4.944;2023-04-16T17:46:29;33.13;;;28.30;;
14708;SDS011;7445;50.774;4.944;2023-04-16T17:48:54;30.87;;;27.50;;
14708;SDS011;7445;50.774;4.944;2023-04-16T17:51:20;31.50;;;28.30;;
14708;SDS011;7445;50.774;4.944;2023-04-16T17:53:46;38.07;;;28.43;;
14708;SDS011;7445;50.774;4.944;2023-04-16T17:56:12;32.27;;;27.70;;
14708;SDS011;7445;50.774;4.944;2023-04-16T17:58:38;30.57;;;27.50;;
14708;SDS011;7445;50.774;4.944;2023-04-16T18:01:03;47.70;;;31.37;;
14708;SDS011;7445;50.774;4.944;2023-04-16T18:03:30;33.10;;;29.33;;
14708;SDS011;7445;50.774;4.944;2023-04-16T18:05:56;39.67;;;30.77;;
14708;SDS011;7445;50.774;4.944;2023-04-16T18:08:22;31.20;;;27.83;;
14708;SDS011;7445;50.774;4.944;2023-04-16T18:10:48;36.73;;;28.50;;
14708;SDS011;7445;50.774;4.944;2023-04-16T18:13:14;36.03;;;28.83;;
14708;SDS011;7445;50.774;4.944;2023-04-16T18:15:40;32.10;;;28.47;;
14708;SDS011;7445;50.774;4.944;2023-04-16T18:18:06;37.07;;;27.60;;
14708;SDS011;7445;50.774;4.944;2023-04-16T18:20:33;37.33;;;27.33;;
14708;SDS011;7445;50.774;4.944;2023-04-16T18:22:59;31.03;;;27.93;;
14708;SDS011;7445;50.774;4.944;2023-04-16T18:25:25;30.77;;;27.60;;
14708;SDS011;7445;50.774;4.944;2023-04-16T18:27:50;32.07;;;28.83;;
14708;SDS011;7445;50.774;4.944;2023-04-16T18:30:16;33.77;;;27.90;;
14708;SDS011;7445;50.774;4.944;2023-04-16T18:32:43;30.60;;;27.30;;
14708;SDS011;7445;50.774;4.944;2023-04-16T18:35:09;32.63;;;29.23;;
14708;SDS011;7445;50.774;4.944;2023-04-16T18:37:35;34.60;;;29.37;;
14708;SDS011;7445;50.774;4.944;2023-04-16T18:40:00;30.47;;;27.03;;
14708;SDS011;7445;50.774;4.944;2023-04-16T18:42:29;35.27;;;29.30;;
14708;SDS011;7445;50.774;4.944;2023-04-16T18:44:55;37.03;;;31.67;;
14708;SDS011;7445;50.774;4.944;2023-04-16T18:47:21;32.20;;;29.23;;
14708;SDS011;7445;50.774;4.944;2023-04-16T18:49:47;32.37;;;29.07;;
14708;SDS011;7445;50.774;4.944;2023-04-16T18:52:12;33.87;;;30.23;;
14708;SDS011;7445;50.774;4.944;2023-04-16T18:54:38;40.30;;;29.90;;
14708;SDS011;7445;50.774;4.944;2023-04-16T18:57:04;34.97;;;28.63;;
14708;SDS011;7445;50.774;4.944;2023-04-16T18:59:30;37.70;;;28.43;;
14708;SDS011;7445;50.774;4.944;2023-04-16T19:01:56;32.10;;;27.90;;
14708;SDS011;7445;50.774;4.944;2023-04-16T19:04:22;32.80;;;28.40;;
14708;SDS011;7445;50.774;4.944;2023-04-16T19:06:47;32.80;;;28.30;;
14708;SDS011;7445;50.774;4.944;2023-04-16T19:09:13;28.70;;;25.70;;
14708;SDS011;7445;50.774;4.944;2023-04-16T19:11:54;31.07;;;28.00;;
14708;SDS011;7445;50.774;4.944;2023-04-16T19:14:19;34.97;;;28.73;;
14708;SDS011;7445;50.774;4.944;2023-04-16T19:16:45;29.40;;;26.40;;
14708;SDS011;7445;50.774;4.944;2023-04-16T19:19:11;31.30;;;28.20;;
14708;SDS011;7445;50.774;4.944;2023-04-16T19:21:36;32.00;;;28.47;;
14708;SDS011;7445;50.774;4.944;2023-04-16T19:24:02;32.10;;;28.63;;
14708;SDS011;7445;50.774;4.944;2023-04-16T19:26:28;40.13;;;31.63;;
14708;SDS011;7445;50.774;4.944;2023-04-16T19:28:53;34.00;;;29.23;;
14708;SDS011;7445;50.774;4.944;2023-04-16T19:31:19;34.47;;;28.87;;
14708;SDS011;7445;50.774;4.944;2023-04-16T19:33:45;32.60;;;29.40;;
14708;SDS011;7445;50.774;4.944;2023-04-16T19:36:10;31.90;;;28.50;;
14708;SDS011;7445;50.774;4.944;2023-04-16T19:38:36;35.37;;;29.87;;
14708;SDS011;7445;50.774;4.944;2023-04-16T19:41:02;32.70;;;28.97;;
14708;SDS011;7445;50.774;4.944;2023-04-16T19:43:27;40.13;;;29.97;;
14708;SDS011;7445;50.774;4.944;2023-04-16T19:45:56;36.70;;;32.67;;
14708;SDS011;7445;50.774;4.944;2023-04-16T19:48:22;34.27;;;30.63;;
14708;SDS011;7445;50.774;4.944;2023-04-16T19:50:47;35.33;;;31.17;;
14708;SDS011;7445;50.774;4.944;2023-04-16T19:53:13;34.23;;;30.90;;
14708;SDS011;7445;50.774;4.944;2023-04-16T19:55:40;37.53;;;31.30;;
14708;SDS011;7445;50.774;4.944;2023-04-16T19:58:06;38.10;;;34.03;;
14708;SDS011;7445;50.774;4.944;2023-04-16T20:00:33;38.53;;;32.63;;
14708;SDS011;7445;50.774;4.944;2023-04-16T20:03:00;37.47;;;33.50;;
14708;SDS011;7445;50.774;4.944;2023-04-16T20:05:26;37.90;;;33.60;;
14708;SDS011;7445;50.774;4.944;2023-04-16T20:07:52;36.83;;;33.13;;
14708;SDS011;7445;50.774;4.944;2023-04-16T20:10:18;38.43;;;34.33;;
14708;SDS011;7445;50.774;4.944;2023-04-16T20:12:44;36.47;;;32.43;;
14708;SDS011;7445;50.774;4.944;2023-04-16T20:15:10;44.13;;;34.00;;
14708;SDS011;7445;50.774;4.944;2023-04-16T20:17:35;38.57;;;34.33;;
14708;SDS011;7445;50.774;4.944;2023-04-16T20:20:02;35.63;;;31.93;;
14708;SDS011;7445;50.774;4.944;2023-04-16T20:22:34;36.30;;;32.30;;
14708;SDS011;7445;50.774;4.944;2023-04-16T20:25:00;36.80;;;31.17;;
14708;SDS011;7445;50.774;4.944;2023-04-16T20:27:27;38.30;;;34.23;;
14708;SDS011;7445;50.774;4.944;2023-04-16T20:29:54;33.27;;;29.93;;
14708;SDS011;7445;50.774;4.944;2023-04-16T20:32:19;35.93;;;30.87;;
14708;SDS011;7445;50.774;4.944;2023-04-16T20:34:45;36.27;;;32.17;;
14708;SDS011;7445;50.774;4.944;2023-04-16T20:37:11;36.87;;;32.97;;
14708;SDS011;7445;50.774;4.944;2023-04-16T20:39:36;35.43;;;31.73;;
14708;SDS011;7445;50.774;4.944;2023-04-16T20:42:03;36.97;;;32.97;;
14708;SDS011;7445;50.774;4.944;2023-04-16T20:44:33;35.67;;;31.90;;
14708;SDS011;7445;50.774;4.944;2023-04-16T20:47:04;37.50;;;33.43;;
14708;SDS011;7445;50.774;4.944;2023-04-16T20:49:30;36.13;;;32.40;;
14708;SDS011;7445;50.774;4.944;2023-04-16T20:51:58;34.07;;;30.57;;
14708;SDS011;7445;50.774;4.944;2023-04-16T20:54:27;36.43;;;32.67;;
14708;SDS011;7445;50.774;4.944;2023-04-16T20:56:54;41.38;;;37.05;;
14708;SDS011;7445;50.774;4.944;2023-04-16T20:59:21;37.70;;;33.87;;
14708;SDS011;7445;50.774;4.944;2023-04-16T21:01:47;38.97;;;34.87;;
14708;SDS011;7445;50.774;4.944;2023-04-16T21:04:12;38.23;;;34.27;;
14708;SDS011;7445;50.774;4.944;2023-04-16T21:06:38;40.00;;;35.67;;
14708;SDS011;7445;50.774;4.944;2023-04-16T21:09:06;39.93;;;35.30;;
14708;SDS011;7445;50.774;4.944;2023-04-16T21:11:36;41.03;;;36.50;;
14708;SDS011;7445;50.774;4.944;2023-04-16T21:14:02;39.87;;;35.53;;
14708;SDS011;7445;50.774;4.944;2023-04-16T21:16:29;38.63;;;34.57;;
14708;SDS011;7445;50.774;4.944;2023-04-16T21:18:55;44.13;;;38.03;;
14708;SDS011;7445;50.774;4.944;2023-04-16T21:21:21;44.77;;;39.90;;
